createdAt,value
2022-12-23T00:00:58.147Z,95.64
2022-12-23T00:04:01.021Z,95.04
2022-12-23T00:07:03.871Z,94.45
2022-12-23T00:10:07.017Z,95.86
2022-12-23T00:13:29.560Z,95.90
2022-12-23T00:16:35.482Z,96.19
2022-12-23T00:19:38.502Z,96.61
2022-12-23T00:23:00.827Z,96.82
2022-12-23T00:26:04.095Z,96.68
2022-12-23T00:29:07.003Z,96.65
2022-12-23T00:32:09.997Z,97.02
2022-12-23T00:35:12.972Z,97.15
2022-12-23T00:38:17.114Z,97.55
2022-12-23T00:41:38.595Z,97.83
2022-12-23T00:44:41.541Z,97.89
2022-12-23T00:48:05.055Z,97.50
2022-12-23T00:51:08.001Z,98.31
2022-12-23T00:54:10.819Z,98.46
2022-12-23T00:57:13.800Z,99.36
2022-12-23T01:00:17.432Z,99.47
2022-12-23T01:03:39.045Z,99.32
2022-12-23T01:06:42.161Z,99.95
2022-12-23T01:09:45.256Z,100.00
2022-12-23T01:12:48.296Z,100.00
2022-12-23T01:15:51.021Z,99.87
2022-12-23T01:18:53.836Z,100.00
2022-12-23T01:21:56.596Z,99.77
2022-12-23T01:24:59.499Z,100.00
2022-12-23T01:28:02.306Z,99.62
2022-12-23T01:31:06.390Z,99.84
2022-12-23T01:34:10.675Z,99.27
2022-12-23T01:37:13.627Z,99.14
2022-12-23T01:40:16.695Z,99.61
2022-12-23T01:43:20.522Z,99.64
2022-12-23T01:46:23.403Z,99.75
2022-12-23T01:49:26.268Z,99.40
2022-12-23T01:52:30.233Z,99.96
2022-12-23T01:55:59.401Z,99.44
2022-12-23T01:59:32.679Z,99.70
2022-12-23T02:02:56.109Z,100.00
2022-12-23T02:06:19.578Z,100.00
2022-12-23T02:09:31.377Z,100.00
2022-12-23T02:12:49.491Z,100.00
2022-12-23T02:16:19.358Z,100.00
2022-12-23T02:20:00.096Z,100.00
2022-12-23T02:23:21.366Z,100.00
2022-12-23T02:26:43.138Z,100.00
2022-12-23T02:30:20.209Z,100.00
2022-12-23T02:33:33.180Z,100.00
2022-12-23T02:37:07.635Z,100.00
2022-12-23T02:40:19.327Z,100.00
2022-12-23T02:43:42.132Z,100.00
2022-12-23T02:46:54.591Z,100.00
2022-12-23T02:50:02.637Z,100.00
2022-12-23T02:53:12.102Z,100.00
2022-12-23T02:56:16.680Z,100.00
2022-12-23T02:59:25.057Z,99.80
2022-12-23T03:02:28.047Z,99.40
2022-12-23T03:05:34.076Z,99.44
2022-12-23T03:08:44.827Z,99.83
2022-12-23T03:11:58.712Z,99.79
2022-12-23T03:15:28.287Z,100.00
2022-12-23T03:18:51.529Z,99.68
2022-12-23T03:22:22.063Z,100.00
2022-12-23T03:25:34.060Z,99.46
2022-12-23T03:28:45.913Z,99.47
2022-12-23T03:31:51.698Z,100.00
2022-12-23T03:34:59.894Z,100.00
2022-12-23T03:38:03.902Z,100.00
2022-12-23T03:41:12.778Z,100.00
2022-12-23T03:44:28.322Z,100.00
2022-12-23T03:47:37.664Z,100.00
2022-12-23T03:50:48.010Z,100.00
2022-12-23T03:54:01.606Z,100.00
2022-12-23T03:57:07.658Z,100.00
2022-12-23T04:00:11.672Z,100.00
2022-12-23T04:03:34.798Z,100.00
2022-12-23T04:06:47.825Z,100.00
2022-12-23T04:09:53.470Z,100.00
2022-12-23T04:12:56.463Z,100.00
2022-12-23T04:16:01.656Z,100.00
2022-12-23T04:19:04.517Z,100.00
2022-12-23T04:22:07.377Z,100.00
2022-12-23T04:25:11.578Z,100.00
2022-12-23T04:28:14.382Z,100.00
2022-12-23T04:31:17.236Z,100.00
2022-12-23T04:34:20.101Z,100.00
2022-12-23T04:37:22.945Z,99.89
2022-12-23T04:40:26.183Z,99.62
2022-12-23T04:43:29.072Z,99.77
2022-12-23T04:46:31.955Z,99.62
2022-12-23T04:49:34.988Z,99.30
2022-12-23T04:52:37.897Z,99.75
2022-12-23T04:55:40.712Z,99.80
2022-12-23T04:58:43.653Z,99.95
2022-12-23T05:01:46.770Z,100.00
2022-12-23T05:04:49.785Z,100.00
2022-12-23T05:07:52.712Z,99.21
2022-12-23T05:10:56.427Z,99.89
2022-12-23T05:13:59.348Z,100.00
2022-12-23T05:17:07.093Z,100.00
2022-12-23T05:20:10.940Z,100.00
2022-12-23T05:23:13.793Z,100.00
2022-12-23T05:26:16.787Z,100.00
2022-12-23T05:29:19.536Z,100.00
2022-12-23T05:32:22.306Z,100.00
2022-12-23T05:35:26.762Z,100.00
2022-12-23T05:38:29.726Z,100.00
2022-12-23T05:41:32.616Z,100.00
2022-12-23T05:44:35.356Z,99.94
2022-12-23T05:47:38.258Z,100.00
2022-12-23T05:50:44.334Z,99.37
2022-12-23T05:53:47.146Z,100.00
2022-12-23T05:56:50.068Z,99.84
2022-12-23T05:59:53.063Z,99.04
2022-12-23T06:02:56.328Z,99.95
2022-12-23T06:05:59.223Z,99.64
2022-12-23T06:09:02.461Z,99.73
2022-12-23T06:12:05.582Z,98.91
2022-12-23T06:15:08.888Z,99.27
2022-12-23T06:18:12.547Z,99.56
2022-12-23T06:21:15.302Z,100.00
2022-12-23T06:24:18.146Z,100.00
2022-12-23T06:27:21.069Z,100.00
2022-12-23T06:30:25.470Z,100.00
2022-12-23T06:33:28.376Z,100.00
2022-12-23T06:36:31.177Z,99.96
2022-12-23T06:39:33.904Z,99.98
2022-12-23T06:42:36.858Z,99.61
2022-12-23T06:45:41.114Z,99.82
2022-12-23T06:48:44.031Z,99.18
2022-12-23T06:51:47.137Z,99.84
2022-12-23T06:54:50.014Z,99.30
2022-12-23T06:57:52.799Z,99.31
2022-12-23T07:00:56.929Z,99.30
2022-12-23T07:04:00.000Z,98.98
2022-12-23T07:07:17.851Z,98.67
2022-12-23T07:10:21.063Z,98.56
2022-12-23T07:13:23.857Z,98.80
2022-12-23T07:16:27.041Z,97.83
2022-12-23T07:19:30.175Z,98.50
2022-12-23T07:22:32.936Z,97.72
2022-12-23T07:25:35.699Z,97.72
2022-12-23T07:28:38.587Z,98.02
2022-12-23T07:31:41.580Z,97.16
2022-12-23T07:34:44.410Z,96.77
2022-12-23T07:37:55.601Z,97.07
2022-12-23T07:40:58.377Z,97.33
2022-12-23T07:44:01.165Z,97.52
2022-12-23T07:47:03.944Z,97.32
2022-12-23T07:50:07.569Z,96.71
2022-12-23T07:53:10.436Z,95.61
2022-12-23T07:56:13.128Z,94.51
2022-12-23T07:59:16.252Z,92.86
2022-12-23T08:02:19.067Z,92.08
2022-12-23T08:05:22.203Z,90.58
2022-12-23T08:08:25.104Z,91.51
2022-12-23T08:11:27.989Z,91.12
2022-12-23T08:14:30.926Z,90.97
2022-12-23T08:17:33.828Z,89.85
2022-12-23T08:20:37.551Z,91.18
2022-12-23T08:23:41.523Z,90.47
2022-12-23T08:26:44.811Z,89.97
2022-12-23T08:29:47.755Z,89.61
2022-12-23T08:32:50.667Z,89.22
2022-12-23T08:35:55.117Z,89.91
2022-12-23T08:38:59.804Z,88.82
2022-12-23T08:42:02.765Z,88.96
2022-12-23T08:45:06.097Z,88.01
2022-12-23T08:48:09.096Z,86.88
2022-12-23T08:51:14.911Z,86.12
2022-12-23T08:54:19.866Z,84.32
2022-12-23T08:57:22.644Z,85.19
2022-12-23T09:00:26.217Z,85.13
2022-12-23T09:03:29.490Z,85.45
2022-12-23T09:06:35.978Z,86.23
2022-12-23T09:09:39.282Z,87.77
2022-12-23T09:12:42.506Z,87.96
2022-12-23T09:15:45.911Z,84.48
2022-12-23T09:18:48.626Z,83.48
2022-12-23T09:21:51.512Z,81.96
2022-12-23T09:24:58.656Z,81.72
2022-12-23T09:28:07.319Z,80.80
2022-12-23T09:31:12.582Z,81.17
2022-12-23T09:34:15.540Z,81.08
2022-12-23T09:37:18.621Z,80.83
2022-12-23T09:40:23.603Z,79.25
2022-12-23T09:43:37.339Z,74.90
2022-12-23T09:46:48.763Z,73.57
2022-12-23T09:49:59.212Z,71.85
2022-12-23T09:53:14.379Z,72.57
2022-12-23T09:56:26.001Z,75.11
2022-12-23T09:59:31.743Z,74.26
2022-12-23T10:03:04.563Z,73.35
2022-12-23T10:06:20.408Z,73.94
2022-12-23T10:09:23.500Z,75.37
2022-12-23T10:12:47.040Z,79.60
2022-12-23T10:15:52.025Z,76.27
2022-12-23T10:19:16.171Z,76.20
2022-12-23T10:22:29.960Z,74.58
2022-12-23T10:25:35.535Z,73.33
2022-12-23T10:28:38.381Z,71.22
2022-12-23T10:31:47.513Z,70.78
2022-12-23T10:35:18.560Z,68.82
2022-12-23T10:38:47.149Z,64.22
2022-12-23T10:42:18.881Z,61.79
2022-12-23T10:45:21.762Z,60.92
2022-12-23T10:49:02.728Z,61.47
2022-12-23T10:52:18.903Z,61.12
2022-12-23T10:55:32.906Z,62.50
2022-12-23T10:58:40.979Z,56.90
2022-12-23T11:01:50.663Z,48.90
2022-12-23T11:04:53.575Z,45.55
2022-12-23T11:07:57.358Z,44.87
2022-12-23T11:11:01.659Z,44.76
2022-12-23T11:14:04.478Z,44.45
2022-12-23T11:17:26.396Z,41.84
2022-12-23T11:20:36.326Z,40.93
2022-12-23T11:23:39.108Z,41.22
2022-12-23T11:26:42.751Z,40.04
2022-12-23T11:29:50.832Z,40.03
2022-12-23T11:32:53.677Z,40.86
2022-12-23T11:36:05.044Z,40.70
2022-12-23T11:39:10.558Z,40.63
2022-12-23T11:42:18.106Z,41.39
2022-12-23T11:45:27.304Z,37.81
2022-12-23T11:48:30.741Z,36.66
2022-12-23T11:51:33.855Z,37.86
2022-12-23T11:54:37.188Z,36.28
2022-12-23T11:57:45.122Z,36.06
2022-12-23T12:01:00.250Z,35.30
2022-12-23T12:04:09.323Z,36.49
2022-12-23T12:07:14.654Z,41.59
2022-12-23T12:10:31.923Z,41.73
2022-12-23T12:14:03.116Z,41.61
2022-12-23T12:17:19.559Z,41.45
2022-12-23T12:20:41.129Z,43.44
2022-12-23T12:24:08.151Z,43.73
2022-12-23T12:27:14.226Z,45.19
2022-12-23T12:30:20.619Z,48.59
2022-12-23T12:33:48.552Z,48.33
2022-12-23T12:37:01.015Z,49.61
2022-12-23T12:40:12.841Z,52.96
2022-12-23T12:43:32.249Z,54.71
2022-12-23T12:46:45.041Z,53.50
2022-12-23T12:49:54.886Z,53.78
2022-12-23T12:53:06.389Z,56.27
2022-12-23T12:56:30.542Z,58.15
2022-12-23T12:59:35.922Z,60.24
2022-12-23T13:03:00.457Z,61.45
2022-12-23T13:06:12.479Z,62.59
2022-12-23T13:09:56.602Z,63.67
2022-12-23T13:13:18.245Z,65.51
2022-12-23T13:16:27.272Z,64.20
2022-12-23T13:19:40.218Z,64.08
2022-12-23T13:22:45.462Z,65.38
2022-12-23T13:26:04.461Z,68.45
2022-12-23T13:29:38.984Z,70.35
2022-12-23T13:32:50.113Z,72.92
2022-12-23T13:36:06.741Z,72.85
2022-12-23T13:39:38.123Z,74.09
2022-12-23T13:42:48.834Z,75.02
2022-12-23T13:45:54.182Z,75.99
2022-12-23T13:49:25.443Z,76.89
2022-12-23T13:52:48.426Z,77.90
2022-12-23T13:56:24.096Z,78.49
2022-12-23T13:59:39.170Z,80.00
2022-12-23T14:02:48.708Z,80.27
2022-12-23T14:05:53.846Z,79.58
2022-12-23T14:08:56.634Z,80.13
2022-12-23T14:12:18.859Z,80.29
2022-12-23T14:15:33.850Z,81.29
2022-12-23T14:18:59.900Z,81.27
2022-12-23T14:22:26.979Z,82.23
2022-12-23T14:25:44.758Z,82.68
2022-12-23T14:28:56.736Z,83.18
2022-12-23T14:31:59.597Z,83.39
2022-12-23T14:35:23.046Z,83.65
2022-12-23T14:38:30.915Z,84.14
2022-12-23T14:41:51.522Z,85.07
2022-12-23T14:44:54.373Z,85.28
2022-12-23T14:48:00.010Z,85.45
2022-12-23T14:51:08.540Z,85.49
2022-12-23T14:54:14.318Z,86.37
2022-12-23T14:57:24.434Z,86.32
2022-12-23T15:00:32.270Z,86.48
2022-12-23T15:03:42.839Z,87.54
2022-12-23T15:06:48.716Z,87.56
2022-12-23T15:10:00.776Z,88.44
2022-12-23T15:13:06.304Z,88.69
2022-12-23T15:16:16.271Z,88.83
2022-12-23T15:19:19.210Z,89.10
2022-12-23T15:22:28.477Z,89.64
2022-12-23T15:25:39.824Z,90.70
2022-12-23T15:28:42.906Z,91.34
2022-12-23T15:31:50.726Z,91.27
2022-12-23T15:35:02.320Z,90.93
2022-12-23T15:38:06.273Z,90.80
2022-12-23T15:41:16.579Z,91.32
2022-12-23T15:44:23.234Z,91.50
2022-12-23T15:47:29.854Z,92.17
2022-12-23T15:50:41.739Z,92.52
2022-12-23T15:53:47.921Z,92.35
2022-12-23T15:56:53.495Z,92.32
2022-12-23T15:59:58.913Z,92.65
2022-12-23T16:03:04.573Z,93.43
2022-12-23T16:06:25.828Z,93.56
2022-12-23T16:09:35.144Z,93.20
2022-12-23T16:12:40.472Z,93.07
2022-12-23T16:15:44.869Z,93.15
2022-12-23T16:18:48.196Z,93.75
2022-12-23T16:21:51.145Z,93.77
2022-12-23T16:25:17.251Z,93.49
2022-12-23T16:28:24.497Z,93.57
2022-12-23T16:31:27.962Z,92.92
2022-12-23T16:34:31.974Z,93.39
2022-12-23T16:37:34.760Z,93.09
2022-12-23T16:40:37.789Z,93.62
2022-12-23T16:43:49.446Z,93.90
2022-12-23T16:46:54.609Z,94.33
2022-12-23T16:49:57.541Z,95.21
2022-12-23T16:53:00.412Z,94.72
2022-12-23T16:56:09.873Z,94.43
2022-12-23T16:59:13.903Z,94.29
2022-12-23T17:02:23.840Z,93.64
2022-12-23T17:05:26.769Z,94.36
2022-12-23T17:08:29.802Z,94.62
2022-12-23T17:11:40.222Z,94.87
2022-12-23T17:14:43.036Z,95.69
2022-12-23T17:17:45.998Z,95.94
2022-12-23T17:20:49.552Z,95.63
2022-12-23T17:24:05.166Z,96.54
2022-12-23T17:27:17.068Z,96.62
2022-12-23T17:30:23.591Z,96.41
2022-12-23T17:33:31.259Z,96.10
2022-12-23T17:36:34.124Z,95.98
2022-12-23T17:39:37.168Z,96.26
2022-12-23T17:42:40.873Z,96.06
2022-12-23T17:45:45.107Z,95.85
2022-12-23T17:48:48.199Z,95.59
2022-12-23T17:51:51.477Z,94.99
2022-12-23T17:54:54.489Z,95.13
2022-12-23T17:57:57.467Z,95.62
2022-12-23T18:01:00.524Z,95.74
2022-12-23T18:04:03.559Z,95.37
2022-12-23T18:07:06.538Z,95.49
2022-12-23T18:10:13.400Z,94.94
2022-12-23T18:13:19.881Z,95.80
2022-12-23T18:16:22.843Z,96.03
2022-12-23T18:19:26.108Z,96.58
2022-12-23T18:22:29.106Z,97.34
2022-12-23T18:25:32.036Z,97.53
2022-12-23T18:28:34.952Z,97.66
2022-12-23T18:31:50.986Z,97.56
2022-12-23T18:34:55.827Z,97.67
2022-12-23T18:37:59.609Z,97.08
2022-12-23T18:41:02.529Z,96.77
2022-12-23T18:44:05.542Z,96.68
2022-12-23T18:47:09.100Z,96.36
2022-12-23T18:50:13.660Z,96.52
2022-12-23T18:53:25.484Z,96.42
2022-12-23T18:56:28.723Z,96.39
2022-12-23T18:59:33.290Z,95.80
2022-12-23T19:02:36.615Z,95.91
2022-12-23T19:05:39.571Z,95.69
2022-12-23T19:08:43.896Z,95.65
2022-12-23T19:11:48.591Z,95.90
2022-12-23T19:14:51.574Z,96.95
2022-12-23T19:17:54.305Z,97.30
2022-12-23T19:21:04.374Z,97.29
2022-12-23T19:24:07.366Z,97.23
2022-12-23T19:27:10.168Z,97.61
2022-12-23T19:30:15.528Z,97.22
2022-12-23T19:33:18.904Z,96.50
2022-12-23T19:36:25.201Z,96.84
2022-12-23T19:39:28.402Z,96.70
2022-12-23T19:42:31.341Z,96.78
2022-12-23T19:45:34.408Z,97.56
2022-12-23T19:48:38.011Z,97.04
2022-12-23T19:51:40.997Z,96.94
2022-12-23T19:54:43.959Z,96.86
2022-12-23T19:57:46.677Z,96.46
2022-12-23T20:00:49.544Z,96.64
2022-12-23T20:03:54.466Z,97.22
2022-12-23T20:06:57.253Z,97.03
2022-12-23T20:10:00.191Z,96.21
2022-12-23T20:13:03.263Z,96.38
2022-12-23T20:16:07.211Z,96.43
2022-12-23T20:19:11.265Z,96.32
2022-12-23T20:22:14.421Z,95.53
2022-12-23T20:25:17.299Z,96.37
2022-12-23T20:28:20.285Z,96.02
2022-12-23T20:31:31.757Z,96.63
2022-12-23T20:34:39.185Z,96.61
2022-12-23T20:37:43.005Z,96.83
2022-12-23T20:40:46.023Z,96.97
2022-12-23T20:44:23.449Z,96.86
2022-12-23T20:47:12.713Z,96.69
2022-12-23T20:50:16.221Z,96.83
2022-12-23T20:53:18.977Z,96.67
2022-12-23T20:56:27.706Z,96.26
2022-12-23T20:59:30.678Z,96.21
2022-12-23T21:02:33.525Z,95.56
2022-12-23T21:05:36.295Z,95.45
2022-12-23T21:08:39.459Z,94.96
2022-12-23T21:11:44.354Z,94.64
2022-12-23T21:14:47.133Z,94.45
2022-12-23T21:17:50.112Z,94.42
2022-12-23T21:20:53.175Z,93.68
2022-12-23T21:23:57.887Z,93.05
2022-12-23T21:27:00.857Z,93.14
2022-12-23T21:30:04.169Z,93.72
2022-12-23T21:33:08.554Z,93.63
2022-12-23T21:36:19.787Z,94.30
2022-12-23T21:39:23.171Z,94.73
2022-12-23T21:42:26.141Z,94.17
2022-12-23T21:45:29.149Z,93.54
2022-12-23T21:48:34.376Z,93.21
2022-12-23T21:51:40.511Z,92.92
2022-12-23T21:54:44.128Z,92.62
2022-12-23T21:57:47.360Z,92.61
2022-12-23T22:00:50.166Z,93.04
2022-12-23T22:03:54.271Z,93.59
2022-12-23T22:06:57.133Z,93.74
2022-12-23T22:10:00.142Z,93.80
2022-12-23T22:13:03.027Z,94.28
2022-12-23T22:16:10.649Z,93.72
2022-12-23T22:19:14.948Z,93.84
2022-12-23T22:22:17.668Z,93.73
2022-12-23T22:25:20.448Z,94.10
2022-12-23T22:28:23.313Z,93.33
2022-12-23T22:31:30.153Z,94.04
2022-12-23T22:34:33.125Z,93.66
2022-12-23T22:37:35.903Z,92.75
2022-12-23T22:40:38.914Z,91.94
2022-12-23T22:43:41.712Z,91.93
2022-12-23T22:46:45.443Z,92.33
2022-12-23T22:49:48.454Z,92.54
2022-12-23T22:52:51.550Z,92.33
2022-12-23T22:56:01.582Z,92.49
2022-12-23T22:59:05.065Z,93.01
2022-12-23T23:02:07.877Z,93.18
2022-12-23T23:05:13.102Z,92.76
2022-12-23T23:08:16.295Z,93.49
2022-12-23T23:11:19.686Z,93.40
2022-12-23T23:14:22.548Z,93.61
2022-12-23T23:17:28.067Z,93.59
2022-12-23T23:20:30.851Z,93.58
2022-12-23T23:23:34.285Z,93.41
2022-12-23T23:26:36.994Z,92.40
2022-12-23T23:29:40.060Z,91.64
2022-12-23T23:32:43.098Z,91.72
2022-12-23T23:35:46.013Z,92.50
2022-12-23T23:38:48.825Z,92.68
2022-12-23T23:41:51.691Z,92.35
2022-12-23T23:44:54.760Z,93.38
2022-12-23T23:47:57.646Z,92.59
2022-12-23T23:51:06.088Z,93.09
2022-12-23T23:54:09.620Z,92.66
2022-12-23T23:57:12.445Z,93.05
